sensor_id;sensor_type;location;lat;lon;timestamp;temperature;humidity
40538;DHT22;27925;41.874;12.526;2022-12-18T00:00:44;13.60;91.40
40538;DHT22;27925;41.874;12.526;2022-12-18T00:03:12;13.60;91.40
40538;DHT22;27925;41.874;12.526;2022-12-18T00:05:49;13.60;91.40
40538;DHT22;27925;41.874;12.526;2022-12-18T00:08:16;13.50;91.40
40538;DHT22;27925;41.874;12.526;2022-12-18T00:10:42;13.60;91.50
40538;DHT22;27925;41.874;12.526;2022-12-18T00:13:08;13.60;91.50
40538;DHT22;27925;41.874;12.526;2022-12-18T00:15:35;13.50;91.40
40538;DHT22;27925;41.874;12.526;2022-12-18T00:18:01;13.50;91.50
40538;DHT22;27925;41.874;12.526;2022-12-18T00:20:27;13.40;91.40
40538;DHT22;27925;41.874;12.526;2022-12-18T00:22:53;13.40;91.60
40538;DHT22;27925;41.874;12.526;2022-12-18T00:25:19;13.30;91.50
40538;DHT22;27925;41.874;12.526;2022-12-18T00:27:45;13.20;91.50
40538;DHT22;27925;41.874;12.526;2022-12-18T00:30:11;13.20;91.60
40538;DHT22;27925;41.874;12.526;2022-12-18T00:32:36;13.20;91.60
40538;DHT22;27925;41.874;12.526;2022-12-18T00:35:03;13.20;91.70
40538;DHT22;27925;41.874;12.526;2022-12-18T00:37:29;13.20;91.70
40538;DHT22;27925;41.874;12.526;2022-12-18T00:39:55;13.10;91.70
40538;DHT22;27925;41.874;12.526;2022-12-18T00:42:20;13.20;91.70
40538;DHT22;27925;41.874;12.526;2022-12-18T00:45:15;13.10;91.70
40538;DHT22;27925;41.874;12.526;2022-12-18T00:47:41;13.10;91.70
40538;DHT22;27925;41.874;12.526;2022-12-18T00:50:07;13.10;91.80
40538;DHT22;27925;41.874;12.526;2022-12-18T00:52:33;13.20;91.80
40538;DHT22;27925;41.874;12.526;2022-12-18T00:54:58;13.20;91.80
40538;DHT22;27925;41.874;12.526;2022-12-18T00:57:24;13.20;91.80
40538;DHT22;27925;41.874;12.526;2022-12-18T00:59:50;13.20;91.80
40538;DHT22;27925;41.874;12.526;2022-12-18T01:02:15;13.20;91.80
40538;DHT22;27925;41.874;12.526;2022-12-18T01:04:41;13.20;91.80
40538;DHT22;27925;41.874;12.526;2022-12-18T01:07:06;13.20;91.80
40538;DHT22;27925;41.874;12.526;2022-12-18T01:09:32;13.10;91.90
40538;DHT22;27925;41.874;12.526;2022-12-18T01:11:58;13.10;91.90
40538;DHT22;27925;41.874;12.526;2022-12-18T01:14:24;13.10;91.80
40538;DHT22;27925;41.874;12.526;2022-12-18T01:16:49;13.10;91.90
40538;DHT22;27925;41.874;12.526;2022-12-18T01:19:15;13.00;91.90
40538;DHT22;27925;41.874;12.526;2022-12-18T01:21:41;13.00;91.90
40538;DHT22;27925;41.874;12.526;2022-12-18T01:24:06;12.90;91.90
40538;DHT22;27925;41.874;12.526;2022-12-18T01:26:32;12.90;92.00
40538;DHT22;27925;41.874;12.526;2022-12-18T01:28:58;12.90;91.90
40538;DHT22;27925;41.874;12.526;2022-12-18T01:31:29;12.80;92.00
40538;DHT22;27925;41.874;12.526;2022-12-18T01:33:55;12.80;92.00
40538;DHT22;27925;41.874;12.526;2022-12-18T01:36:26;12.80;92.00
40538;DHT22;27925;41.874;12.526;2022-12-18T01:38:53;12.80;92.10
40538;DHT22;27925;41.874;12.526;2022-12-18T01:41:26;12.80;92.10
40538;DHT22;27925;41.874;12.526;2022-12-18T01:47:37;12.80;92.20
40538;DHT22;27925;41.874;12.526;2022-12-18T01:50:12;12.80;92.10
40538;DHT22;27925;41.874;12.526;2022-12-18T01:52:38;12.80;92.10
40538;DHT22;27925;41.874;12.526;2022-12-18T01:55:07;12.80;92.20
40538;DHT22;27925;41.874;12.526;2022-12-18T01:57:33;12.70;92.30
40538;DHT22;27925;41.874;12.526;2022-12-18T02:00:03;12.70;92.20
40538;DHT22;27925;41.874;12.526;2022-12-18T02:02:30;12.70;92.20
40538;DHT22;27925;41.874;12.526;2022-12-18T02:04:56;12.70;92.20
40538;DHT22;27925;41.874;12.526;2022-12-18T02:10:07;12.70;92.30
40538;DHT22;27925;41.874;12.526;2022-12-18T02:12:42;12.70;92.40
40538;DHT22;27925;41.874;12.526;2022-12-18T02:15:23;12.70;92.40
40538;DHT22;27925;41.874;12.526;2022-12-18T02:17:58;12.60;92.60
40538;DHT22;27925;41.874;12.526;2022-12-18T02:20:36;12.60;92.50
40538;DHT22;27925;41.874;12.526;2022-12-18T02:31:48;12.60;92.60
40538;DHT22;27925;41.874;12.526;2022-12-18T02:34:16;12.50;92.70
40538;DHT22;27925;41.874;12.526;2022-12-18T02:36:44;12.50;92.60
40538;DHT22;27925;41.874;12.526;2022-12-18T02:39:12;12.50;92.70
40538;DHT22;27925;41.874;12.526;2022-12-18T02:41:39;12.50;92.70
40538;DHT22;27925;41.874;12.526;2022-12-18T02:44:12;12.40;92.60
40538;DHT22;27925;41.874;12.526;2022-12-18T02:46:56;12.40;92.80
40538;DHT22;27925;41.874;12.526;2022-12-18T02:57:55;12.50;92.70
40538;DHT22;27925;41.874;12.526;2022-12-18T03:00:27;12.50;92.90
40538;DHT22;27925;41.874;12.526;2022-12-18T03:03:05;12.50;92.80
40538;DHT22;27925;41.874;12.526;2022-12-18T03:08:22;12.50;92.80
40538;DHT22;27925;41.874;12.526;2022-12-18T03:11:09;12.50;93.00
40538;DHT22;27925;41.874;12.526;2022-12-18T03:13:52;12.50;93.10
40538;DHT22;27925;41.874;12.526;2022-12-18T03:16:24;12.50;92.80
40538;DHT22;27925;41.874;12.526;2022-12-18T03:18:56;12.40;93.00
40538;DHT22;27925;41.874;12.526;2022-12-18T03:21:27;12.40;92.90
40538;DHT22;27925;41.874;12.526;2022-12-18T03:23:54;12.40;93.00
40538;DHT22;27925;41.874;12.526;2022-12-18T03:26:23;12.40;93.00
40538;DHT22;27925;41.874;12.526;2022-12-18T03:28:54;12.40;93.10
40538;DHT22;27925;41.874;12.526;2022-12-18T03:31:23;12.40;93.40
40538;DHT22;27925;41.874;12.526;2022-12-18T03:34:14;12.40;93.20
40538;DHT22;27925;41.874;12.526;2022-12-18T03:36:40;12.40;93.20
40538;DHT22;27925;41.874;12.526;2022-12-18T03:39:06;12.40;93.10
40538;DHT22;27925;41.874;12.526;2022-12-18T03:41:37;12.40;93.20
40538;DHT22;27925;41.874;12.526;2022-12-18T03:49:53;12.30;93.00
40538;DHT22;27925;41.874;12.526;2022-12-18T03:52:35;12.30;93.30
40538;DHT22;27925;41.874;12.526;2022-12-18T03:55:03;12.30;93.30
40538;DHT22;27925;41.874;12.526;2022-12-18T03:57:30;12.30;93.40
40538;DHT22;27925;41.874;12.526;2022-12-18T04:00:10;12.30;93.40
40538;DHT22;27925;41.874;12.526;2022-12-18T04:02:38;12.30;93.30
40538;DHT22;27925;41.874;12.526;2022-12-18T04:05:07;12.30;93.40
40538;DHT22;27925;41.874;12.526;2022-12-18T04:07:33;12.30;93.40
40538;DHT22;27925;41.874;12.526;2022-12-18T04:10:01;12.30;93.40
40538;DHT22;27925;41.874;12.526;2022-12-18T04:12:29;12.30;93.40
40538;DHT22;27925;41.874;12.526;2022-12-18T04:14:55;12.30;93.30
40538;DHT22;27925;41.874;12.526;2022-12-18T04:17:22;12.40;93.40
40538;DHT22;27925;41.874;12.526;2022-12-18T04:19:48;12.30;93.30
40538;DHT22;27925;41.874;12.526;2022-12-18T04:22:13;12.30;93.30
40538;DHT22;27925;41.874;12.526;2022-12-18T04:24:39;12.30;93.40
40538;DHT22;27925;41.874;12.526;2022-12-18T04:27:06;12.20;93.30
40538;DHT22;27925;41.874;12.526;2022-12-18T04:29:32;12.20;93.40
40538;DHT22;27925;41.874;12.526;2022-12-18T04:31:58;12.10;93.40
40538;DHT22;27925;41.874;12.526;2022-12-18T04:34:23;12.10;93.40
40538;DHT22;27925;41.874;12.526;2022-12-18T04:36:49;12.10;93.60
40538;DHT22;27925;41.874;12.526;2022-12-18T04:39:15;12.10;93.50
40538;DHT22;27925;41.874;12.526;2022-12-18T04:41:41;12.10;93.50
40538;DHT22;27925;41.874;12.526;2022-12-18T04:44:06;12.10;93.50
40538;DHT22;27925;41.874;12.526;2022-12-18T04:46:32;12.10;93.70
40538;DHT22;27925;41.874;12.526;2022-12-18T04:48:58;12.10;93.70
40538;DHT22;27925;41.874;12.526;2022-12-18T04:51:24;12.10;93.60
40538;DHT22;27925;41.874;12.526;2022-12-18T04:53:49;12.00;93.60
40538;DHT22;27925;41.874;12.526;2022-12-18T04:56:15;12.00;93.70
40538;DHT22;27925;41.874;12.526;2022-12-18T04:58:43;12.00;93.60
40538;DHT22;27925;41.874;12.526;2022-12-18T05:01:11;12.00;93.80
40538;DHT22;27925;41.874;12.526;2022-12-18T05:03:37;12.00;93.90
40538;DHT22;27925;41.874;12.526;2022-12-18T05:06:04;12.00;93.80
40538;DHT22;27925;41.874;12.526;2022-12-18T05:08:31;12.00;93.90
40538;DHT22;27925;41.874;12.526;2022-12-18T05:11:01;12.00;93.90
40538;DHT22;27925;41.874;12.526;2022-12-18T05:13:28;11.90;93.90
40538;DHT22;27925;41.874;12.526;2022-12-18T05:15:54;11.80;93.80
40538;DHT22;27925;41.874;12.526;2022-12-18T05:18:21;11.80;94.10
40538;DHT22;27925;41.874;12.526;2022-12-18T05:20:47;11.80;94.00
40538;DHT22;27925;41.874;12.526;2022-12-18T05:23:13;11.80;94.00
40538;DHT22;27925;41.874;12.526;2022-12-18T05:25:38;11.80;94.00
40538;DHT22;27925;41.874;12.526;2022-12-18T05:28:04;11.80;93.90
40538;DHT22;27925;41.874;12.526;2022-12-18T05:30:30;11.80;93.90
40538;DHT22;27925;41.874;12.526;2022-12-18T05:32:55;11.80;94.00
40538;DHT22;27925;41.874;12.526;2022-12-18T05:35:21;11.80;94.00
40538;DHT22;27925;41.874;12.526;2022-12-18T05:37:47;11.80;94.00
40538;DHT22;27925;41.874;12.526;2022-12-18T05:40:13;11.80;94.10
40538;DHT22;27925;41.874;12.526;2022-12-18T05:42:39;11.80;94.20
40538;DHT22;27925;41.874;12.526;2022-12-18T05:45:05;11.80;94.20
40538;DHT22;27925;41.874;12.526;2022-12-18T05:47:31;11.70;93.90
40538;DHT22;27925;41.874;12.526;2022-12-18T05:49:57;11.70;94.10
40538;DHT22;27925;41.874;12.526;2022-12-18T05:52:23;11.70;94.20
40538;DHT22;27925;41.874;12.526;2022-12-18T05:54:49;11.70;94.00
40538;DHT22;27925;41.874;12.526;2022-12-18T05:57:14;11.70;94.20
40538;DHT22;27925;41.874;12.526;2022-12-18T05:59:40;11.70;94.10
40538;DHT22;27925;41.874;12.526;2022-12-18T06:02:06;11.70;94.10
40538;DHT22;27925;41.874;12.526;2022-12-18T06:04:32;11.70;94.10
40538;DHT22;27925;41.874;12.526;2022-12-18T06:06:58;11.70;94.40
40538;DHT22;27925;41.874;12.526;2022-12-18T06:09:24;11.70;94.10
40538;DHT22;27925;41.874;12.526;2022-12-18T06:11:51;11.70;94.00
40538;DHT22;27925;41.874;12.526;2022-12-18T06:14:17;11.70;94.00
40538;DHT22;27925;41.874;12.526;2022-12-18T06:16:43;11.70;94.00
40538;DHT22;27925;41.874;12.526;2022-12-18T06:19:15;11.70;94.00
40538;DHT22;27925;41.874;12.526;2022-12-18T06:21:41;11.70;94.20
40538;DHT22;27925;41.874;12.526;2022-12-18T06:24:07;11.70;94.10
40538;DHT22;27925;41.874;12.526;2022-12-18T06:26:33;11.70;94.10
40538;DHT22;27925;41.874;12.526;2022-12-18T06:28:59;11.70;94.10
40538;DHT22;27925;41.874;12.526;2022-12-18T06:31:25;11.70;94.00
40538;DHT22;27925;41.874;12.526;2022-12-18T06:33:51;11.70;94.00
40538;DHT22;27925;41.874;12.526;2022-12-18T06:36:17;11.70;93.90
40538;DHT22;27925;41.874;12.526;2022-12-18T06:38:43;11.70;93.80
40538;DHT22;27925;41.874;12.526;2022-12-18T06:41:14;11.70;93.90
40538;DHT22;27925;41.874;12.526;2022-12-18T06:43:40;11.70;93.40
40538;DHT22;27925;41.874;12.526;2022-12-18T06:46:06;11.70;93.90
40538;DHT22;27925;41.874;12.526;2022-12-18T06:48:33;11.70;93.90
40538;DHT22;27925;41.874;12.526;2022-12-18T06:50:59;11.70;93.90
40538;DHT22;27925;41.874;12.526;2022-12-18T06:53:25;11.70;93.90
40538;DHT22;27925;41.874;12.526;2022-12-18T06:55:51;11.70;93.90
40538;DHT22;27925;41.874;12.526;2022-12-18T06:58:17;11.70;93.90
40538;DHT22;27925;41.874;12.526;2022-12-18T07:00:42;11.70;94.00
40538;DHT22;27925;41.874;12.526;2022-12-18T07:03:08;11.80;93.90
40538;DHT22;27925;41.874;12.526;2022-12-18T07:05:34;11.90;93.80
40538;DHT22;27925;41.874;12.526;2022-12-18T07:08:00;11.90;93.90
40538;DHT22;27925;41.874;12.526;2022-12-18T07:10:25;12.00;93.70
40538;DHT22;27925;41.874;12.526;2022-12-18T07:12:51;12.00;93.60
40538;DHT22;27925;41.874;12.526;2022-12-18T07:15:17;12.00;93.60
40538;DHT22;27925;41.874;12.526;2022-12-18T07:17:42;12.10;93.60
40538;DHT22;27925;41.874;12.526;2022-12-18T07:20:09;12.10;93.50
40538;DHT22;27925;41.874;12.526;2022-12-18T07:22:35;12.30;93.40
40538;DHT22;27925;41.874;12.526;2022-12-18T07:25:00;12.30;93.30
40538;DHT22;27925;41.874;12.526;2022-12-18T07:27:26;12.30;93.40
40538;DHT22;27925;41.874;12.526;2022-12-18T07:29:52;12.40;93.30
40538;DHT22;27925;41.874;12.526;2022-12-18T07:32:18;12.50;93.20
40538;DHT22;27925;41.874;12.526;2022-12-18T07:34:43;12.50;93.00
40538;DHT22;27925;41.874;12.526;2022-12-18T07:37:09;12.50;93.00
40538;DHT22;27925;41.874;12.526;2022-12-18T07:39:35;12.50;93.00
40538;DHT22;27925;41.874;12.526;2022-12-18T07:42:00;12.60;93.00
40538;DHT22;27925;41.874;12.526;2022-12-18T07:44:44;12.60;92.80
40538;DHT22;27925;41.874;12.526;2022-12-18T07:47:10;12.70;92.70
40538;DHT22;27925;41.874;12.526;2022-12-18T07:49:36;12.70;92.70
40538;DHT22;27925;41.874;12.526;2022-12-18T07:52:02;12.70;92.80
40538;DHT22;27925;41.874;12.526;2022-12-18T07:54:27;12.70;92.70
40538;DHT22;27925;41.874;12.526;2022-12-18T07:56:53;12.70;92.80
40538;DHT22;27925;41.874;12.526;2022-12-18T07:59:19;12.70;92.70
40538;DHT22;27925;41.874;12.526;2022-12-18T08:01:44;12.70;92.60
40538;DHT22;27925;41.874;12.526;2022-12-18T08:04:10;12.70;92.60
40538;DHT22;27925;41.874;12.526;2022-12-18T08:06:36;12.70;92.40
40538;DHT22;27925;41.874;12.526;2022-12-18T08:09:02;12.70;92.30
40538;DHT22;27925;41.874;12.526;2022-12-18T08:11:28;12.70;92.50
40538;DHT22;27925;41.874;12.526;2022-12-18T08:13:54;12.70;92.40
40538;DHT22;27925;41.874;12.526;2022-12-18T08:16:21;12.70;92.60
40538;DHT22;27925;41.874;12.526;2022-12-18T08:18:48;12.70;92.40
40538;DHT22;27925;41.874;12.526;2022-12-18T08:21:20;12.70;92.40
40538;DHT22;27925;41.874;12.526;2022-12-18T08:23:47;12.70;92.50
40538;DHT22;27925;41.874;12.526;2022-12-18T08:26:13;12.70;92.40
40538;DHT22;27925;41.874;12.526;2022-12-18T08:28:40;12.80;92.40
40538;DHT22;27925;41.874;12.526;2022-12-18T08:31:06;12.80;92.40
40538;DHT22;27925;41.874;12.526;2022-12-18T08:33:32;12.90;92.30
40538;DHT22;27925;41.874;12.526;2022-12-18T08:35:59;13.00;92.20
40538;DHT22;27925;41.874;12.526;2022-12-18T08:38:25;13.00;92.30
40538;DHT22;27925;41.874;12.526;2022-12-18T08:40:59;13.10;92.20
40538;DHT22;27925;41.874;12.526;2022-12-18T08:43:25;13.10;92.20
40538;DHT22;27925;41.874;12.526;2022-12-18T08:46:09;13.10;92.10
40538;DHT22;27925;41.874;12.526;2022-12-18T08:48:35;13.10;92.00
40538;DHT22;27925;41.874;12.526;2022-12-18T08:51:01;13.10;92.00
40538;DHT22;27925;41.874;12.526;2022-12-18T08:53:27;13.10;92.00
40538;DHT22;27925;41.874;12.526;2022-12-18T08:55:53;13.10;91.90
40538;DHT22;27925;41.874;12.526;2022-12-18T08:58:19;13.10;91.90
40538;DHT22;27925;41.874;12.526;2022-12-18T09:00:45;13.20;91.90
40538;DHT22;27925;41.874;12.526;2022-12-18T09:03:16;13.20;91.70
40538;DHT22;27925;41.874;12.526;2022-12-18T09:05:42;13.30;91.80
40538;DHT22;27925;41.874;12.526;2022-12-18T09:08:08;13.30;91.70
40538;DHT22;27925;41.874;12.526;2022-12-18T09:10:40;13.30;91.70
40538;DHT22;27925;41.874;12.526;2022-12-18T09:13:06;13.40;91.70
40538;DHT22;27925;41.874;12.526;2022-12-18T09:15:32;13.40;91.60
40538;DHT22;27925;41.874;12.526;2022-12-18T09:17:57;13.50;91.60
40538;DHT22;27925;41.874;12.526;2022-12-18T09:20:23;13.60;91.70
40538;DHT22;27925;41.874;12.526;2022-12-18T09:22:49;13.70;91.50
40538;DHT22;27925;41.874;12.526;2022-12-18T09:25:15;13.80;91.40
40538;DHT22;27925;41.874;12.526;2022-12-18T09:27:41;13.80;91.30
40538;DHT22;27925;41.874;12.526;2022-12-18T09:30:07;13.80;91.30
40538;DHT22;27925;41.874;12.526;2022-12-18T09:32:33;13.90;91.20
40538;DHT22;27925;41.874;12.526;2022-12-18T09:34:59;13.90;91.20
40538;DHT22;27925;41.874;12.526;2022-12-18T09:37:25;14.00;91.10
40538;DHT22;27925;41.874;12.526;2022-12-18T09:39:50;14.10;91.10
40538;DHT22;27925;41.874;12.526;2022-12-18T09:42:21;14.20;91.10
40538;DHT22;27925;41.874;12.526;2022-12-18T09:44:52;14.30;91.00
40538;DHT22;27925;41.874;12.526;2022-12-18T09:47:32;14.40;90.90
40538;DHT22;27925;41.874;12.526;2022-12-18T09:50:03;14.40;90.80
40538;DHT22;27925;41.874;12.526;2022-12-18T09:52:44;14.50;90.60
40538;DHT22;27925;41.874;12.526;2022-12-18T09:55:22;14.60;90.60
40538;DHT22;27925;41.874;12.526;2022-12-18T09:57:53;14.70;90.60
40538;DHT22;27925;41.874;12.526;2022-12-18T10:00:23;14.70;90.40
40538;DHT22;27925;41.874;12.526;2022-12-18T10:02:59;14.80;90.20
40538;DHT22;27925;41.874;12.526;2022-12-18T10:05:40;14.90;90.20
40538;DHT22;27925;41.874;12.526;2022-12-18T10:10:52;15.00;89.10
40538;DHT22;27925;41.874;12.526;2022-12-18T10:19:02;15.20;87.50
40538;DHT22;27925;41.874;12.526;2022-12-18T10:21:32;15.30;88.30
40538;DHT22;27925;41.874;12.526;2022-12-18T10:24:39;15.30;88.20
40538;DHT22;27925;41.874;12.526;2022-12-18T10:27:18;15.40;87.80
40538;DHT22;27925;41.874;12.526;2022-12-18T10:29:47;15.40;88.20
40538;DHT22;27925;41.874;12.526;2022-12-18T10:32:25;15.40;88.00
40538;DHT22;27925;41.874;12.526;2022-12-18T10:34:53;15.50;87.80
40538;DHT22;27925;41.874;12.526;2022-12-18T10:37:21;15.60;87.90
40538;DHT22;27925;41.874;12.526;2022-12-18T10:40:13;15.70;87.80
40538;DHT22;27925;41.874;12.526;2022-12-18T10:42:39;15.80;87.30
40538;DHT22;27925;41.874;12.526;2022-12-18T10:45:11;15.90;87.10
40538;DHT22;27925;41.874;12.526;2022-12-18T10:47:43;16.00;86.50
40538;DHT22;27925;41.874;12.526;2022-12-18T10:50:20;16.00;86.50
40538;DHT22;27925;41.874;12.526;2022-12-18T10:53:01;16.00;86.00
40538;DHT22;27925;41.874;12.526;2022-12-18T10:55:33;16.10;85.80
40538;DHT22;27925;41.874;12.526;2022-12-18T10:58:35;16.20;84.90
40538;DHT22;27925;41.874;12.526;2022-12-18T11:06:20;16.00;84.40
40538;DHT22;27925;41.874;12.526;2022-12-18T11:11:27;16.00;84.60
40538;DHT22;27925;41.874;12.526;2022-12-18T11:14:14;16.00;84.20
40538;DHT22;27925;41.874;12.526;2022-12-18T11:16:45;16.00;84.20
40538;DHT22;27925;41.874;12.526;2022-12-18T11:19:24;16.10;84.00
40538;DHT22;27925;41.874;12.526;2022-12-18T11:21:51;16.20;83.60
40538;DHT22;27925;41.874;12.526;2022-12-18T11:24:32;16.40;83.10
40538;DHT22;27925;41.874;12.526;2022-12-18T11:27:04;16.50;83.10
40538;DHT22;27925;41.874;12.526;2022-12-18T11:29:36;16.70;82.40
40538;DHT22;27925;41.874;12.526;2022-12-18T11:32:29;16.90;82.00
40538;DHT22;27925;41.874;12.526;2022-12-18T11:38:24;17.10;80.80
40538;DHT22;27925;41.874;12.526;2022-12-18T11:41:07;17.10;80.90
40538;DHT22;27925;41.874;12.526;2022-12-18T11:43:59;17.20;80.70
40538;DHT22;27925;41.874;12.526;2022-12-18T11:46:36;17.30;80.80
40538;DHT22;27925;41.874;12.526;2022-12-18T11:49:14;17.30;80.70
40538;DHT22;27925;41.874;12.526;2022-12-18T11:51:47;17.30;80.10
40538;DHT22;27925;41.874;12.526;2022-12-18T11:54:15;17.20;80.10
40538;DHT22;27925;41.874;12.526;2022-12-18T11:56:48;17.10;79.90
40538;DHT22;27925;41.874;12.526;2022-12-18T12:10:28;17.30;79.00
40538;DHT22;27925;41.874;12.526;2022-12-18T12:16:06;17.30;78.40
40538;DHT22;27925;41.874;12.526;2022-12-18T12:21:45;17.50;77.60
40538;DHT22;27925;41.874;12.526;2022-12-18T12:29:49;17.60;77.10
40538;DHT22;27925;41.874;12.526;2022-12-18T12:38:16;17.70;76.30
40538;DHT22;27925;41.874;12.526;2022-12-18T12:40:51;17.70;75.90
40538;DHT22;27925;41.874;12.526;2022-12-18T12:45:57;17.90;76.30
40538;DHT22;27925;41.874;12.526;2022-12-18T12:50:51;18.00;75.80
40538;DHT22;27925;41.874;12.526;2022-12-18T12:53:26;18.10;75.70
40538;DHT22;27925;41.874;12.526;2022-12-18T12:55:55;18.10;75.30
40538;DHT22;27925;41.874;12.526;2022-12-18T13:06:37;18.10;74.20
40538;DHT22;27925;41.874;12.526;2022-12-18T13:09:05;18.20;74.30
40538;DHT22;27925;41.874;12.526;2022-12-18T13:11:39;18.20;74.00
40538;DHT22;27925;41.874;12.526;2022-12-18T13:14:36;18.20;73.80
40538;DHT22;27925;41.874;12.526;2022-12-18T13:19:43;18.20;74.10
40538;DHT22;27925;41.874;12.526;2022-12-18T13:22:30;18.20;73.70
40538;DHT22;27925;41.874;12.526;2022-12-18T13:24:56;18.30;73.20
40538;DHT22;27925;41.874;12.526;2022-12-18T13:40:58;18.20;73.10
40538;DHT22;27925;41.874;12.526;2022-12-18T13:43:44;18.20;72.70
40538;DHT22;27925;41.874;12.526;2022-12-18T13:51:26;18.20;72.20
40538;DHT22;27925;41.874;12.526;2022-12-18T13:54:38;18.20;71.70
40538;DHT22;27925;41.874;12.526;2022-12-18T13:57:22;18.30;72.60
40538;DHT22;27925;41.874;12.526;2022-12-18T13:59:50;18.60;70.90
40538;DHT22;27925;41.874;12.526;2022-12-18T14:02:20;18.70;70.40
40538;DHT22;27925;41.874;12.526;2022-12-18T14:04:47;18.70;70.70
40538;DHT22;27925;41.874;12.526;2022-12-18T14:07:20;18.50;70.40
40538;DHT22;27925;41.874;12.526;2022-12-18T14:09:50;18.50;71.70
40538;DHT22;27925;41.874;12.526;2022-12-18T14:12:33;18.30;71.00
40538;DHT22;27925;41.874;12.526;2022-12-18T14:20:41;18.00;72.50
40538;DHT22;27925;41.874;12.526;2022-12-18T14:23:33;18.00;72.20
40538;DHT22;27925;41.874;12.526;2022-12-18T14:26:01;18.00;72.80
40538;DHT22;27925;41.874;12.526;2022-12-18T14:28:27;17.90;72.60
40538;DHT22;27925;41.874;12.526;2022-12-18T14:30:53;17.90;72.50
40538;DHT22;27925;41.874;12.526;2022-12-18T14:33:22;17.80;72.70
40538;DHT22;27925;41.874;12.526;2022-12-18T14:36:03;17.80;73.10
40538;DHT22;27925;41.874;12.526;2022-12-18T14:38:39;17.80;73.50
40538;DHT22;27925;41.874;12.526;2022-12-18T14:41:12;17.70;73.10
40538;DHT22;27925;41.874;12.526;2022-12-18T14:43:40;17.70;73.10
40538;DHT22;27925;41.874;12.526;2022-12-18T14:49:03;17.60;73.90
40538;DHT22;27925;41.874;12.526;2022-12-18T14:51:34;17.50;74.00
40538;DHT22;27925;41.874;12.526;2022-12-18T14:54:02;17.40;74.20
40538;DHT22;27925;41.874;12.526;2022-12-18T14:56:30;17.30;74.60
40538;DHT22;27925;41.874;12.526;2022-12-18T14:59:20;17.30;74.70
40538;DHT22;27925;41.874;12.526;2022-12-18T15:04:36;17.20;75.00
40538;DHT22;27925;41.874;12.526;2022-12-18T15:09:36;17.20;75.60
40538;DHT22;27925;41.874;12.526;2022-12-18T15:12:03;17.10;74.90
40538;DHT22;27925;41.874;12.526;2022-12-18T15:17:05;17.00;75.50
40538;DHT22;27925;41.874;12.526;2022-12-18T15:19:43;16.90;75.40
40538;DHT22;27925;41.874;12.526;2022-12-18T15:22:34;16.90;75.80
40538;DHT22;27925;41.874;12.526;2022-12-18T15:25:02;16.80;75.90
40538;DHT22;27925;41.874;12.526;2022-12-18T15:27:33;16.80;75.90
40538;DHT22;27925;41.874;12.526;2022-12-18T15:32:26;16.60;76.50
40538;DHT22;27925;41.874;12.526;2022-12-18T15:35:23;16.60;76.60
40538;DHT22;27925;41.874;12.526;2022-12-18T15:37:48;16.50;76.70
40538;DHT22;27925;41.874;12.526;2022-12-18T15:40:22;16.50;76.80
40538;DHT22;27925;41.874;12.526;2022-12-18T15:42:52;16.50;77.10
40538;DHT22;27925;41.874;12.526;2022-12-18T15:45:37;16.40;77.40
40538;DHT22;27925;41.874;12.526;2022-12-18T15:48:15;16.30;77.60
40538;DHT22;27925;41.874;12.526;2022-12-18T15:50:43;16.20;78.00
40538;DHT22;27925;41.874;12.526;2022-12-18T15:53:09;16.20;78.10
40538;DHT22;27925;41.874;12.526;2022-12-18T15:55:34;16.10;78.40
40538;DHT22;27925;41.874;12.526;2022-12-18T15:58:18;16.00;78.20
40538;DHT22;27925;41.874;12.526;2022-12-18T16:00:45;16.00;78.50
40538;DHT22;27925;41.874;12.526;2022-12-18T16:03:11;15.90;78.70
40538;DHT22;27925;41.874;12.526;2022-12-18T16:05:36;15.90;79.00
40538;DHT22;27925;41.874;12.526;2022-12-18T16:08:02;15.90;79.20
40538;DHT22;27925;41.874;12.526;2022-12-18T16:10:28;15.80;79.20
40538;DHT22;27925;41.874;12.526;2022-12-18T16:12:54;15.80;79.50
40538;DHT22;27925;41.874;12.526;2022-12-18T16:15:20;15.80;79.50
40538;DHT22;27925;41.874;12.526;2022-12-18T16:17:46;15.70;79.70
40538;DHT22;27925;41.874;12.526;2022-12-18T16:20:18;15.70;79.70
40538;DHT22;27925;41.874;12.526;2022-12-18T16:22:45;15.70;79.90
40538;DHT22;27925;41.874;12.526;2022-12-18T16:25:25;15.60;79.80
40538;DHT22;27925;41.874;12.526;2022-12-18T16:27:51;15.60;80.10
40538;DHT22;27925;41.874;12.526;2022-12-18T16:30:20;15.60;80.30
40538;DHT22;27925;41.874;12.526;2022-12-18T16:32:46;15.50;80.40
40538;DHT22;27925;41.874;12.526;2022-12-18T16:35:13;15.50;80.70
40538;DHT22;27925;41.874;12.526;2022-12-18T16:37:40;15.50;80.90
40538;DHT22;27925;41.874;12.526;2022-12-18T16:40:08;15.50;81.00
40538;DHT22;27925;41.874;12.526;2022-12-18T16:42:39;15.50;81.40
40538;DHT22;27925;41.874;12.526;2022-12-18T16:45:06;15.50;81.50
40538;DHT22;27925;41.874;12.526;2022-12-18T16:47:33;15.40;81.70
40538;DHT22;27925;41.874;12.526;2022-12-18T16:49:59;15.40;81.80
40538;DHT22;27925;41.874;12.526;2022-12-18T16:52:25;15.30;82.10
40538;DHT22;27925;41.874;12.526;2022-12-18T16:54:51;15.30;82.30
40538;DHT22;27925;41.874;12.526;2022-12-18T16:57:19;15.30;82.60
40538;DHT22;27925;41.874;12.526;2022-12-18T16:59:45;15.20;82.60
40538;DHT22;27925;41.874;12.526;2022-12-18T17:02:16;15.20;82.60
40538;DHT22;27925;41.874;12.526;2022-12-18T17:04:43;15.20;82.70
40538;DHT22;27925;41.874;12.526;2022-12-18T17:07:09;15.20;82.90
40538;DHT22;27925;41.874;12.526;2022-12-18T17:09:36;15.10;83.10
40538;DHT22;27925;41.874;12.526;2022-12-18T17:12:02;15.10;83.20
40538;DHT22;27925;41.874;12.526;2022-12-18T17:14:28;15.10;83.50
40538;DHT22;27925;41.874;12.526;2022-12-18T17:16:54;15.10;83.70
40538;DHT22;27925;41.874;12.526;2022-12-18T17:19:22;15.10;84.00
40538;DHT22;27925;41.874;12.526;2022-12-18T17:21:50;15.00;83.90
40538;DHT22;27925;41.874;12.526;2022-12-18T17:24:17;15.00;84.20
40538;DHT22;27925;41.874;12.526;2022-12-18T17:26:43;15.00;84.20
40538;DHT22;27925;41.874;12.526;2022-12-18T17:29:13;15.00;84.70
40538;DHT22;27925;41.874;12.526;2022-12-18T17:31:39;14.90;85.10
40538;DHT22;27925;41.874;12.526;2022-12-18T17:34:05;14.90;84.80
40538;DHT22;27925;41.874;12.526;2022-12-18T17:36:31;14.90;84.80
40538;DHT22;27925;41.874;12.526;2022-12-18T17:38:59;14.90;84.60
40538;DHT22;27925;41.874;12.526;2022-12-18T17:41:26;14.90;84.60
40538;DHT22;27925;41.874;12.526;2022-12-18T17:43:56;14.90;84.50